Time;durP1;ratioP1;P1;durP2;ratioP2;P2;SDS_P1;SDS_P2;PMS_P1;PMS_P2;Temp;Humidity;BMP_temperature;BMP_pressure;BME280_temperature;BME280_humidity;BME280_pressure;Samples;Min_cycle;Max_cycle;Signal;HPM_P1;HPM_P2
2021/04/07 00:02:01;;;;;;;9.83;2.13;;;1.90;83.90;;;;;;5112269;28;20139;-69
2021/04/07 00:04:27;;;;;;;8.93;1.63;;;1.90;84.10;;;;;;5112530;28;20396;-69
2021/04/07 00:06:55;;;;;;;10.03;1.77;;;1.90;84.10;;;;;;5112218;28;20290;-67
2021/04/07 00:09:22;;;;;;;8.20;1.83;;;1.90;84.10;;;;;;5112790;28;20103;-67
2021/04/07 00:11:48;;;;;;;8.55;1.60;;;1.90;84.10;;;;;;5112125;28;20054;-68
2021/04/07 00:14:13;;;;;;;9.70;1.70;;;1.90;84.00;;;;;;5111550;28;20055;-68
2021/04/07 00:16:39;;;;;;;6.60;1.50;;;1.90;84.00;;;;;;5112704;28;20301;-68
2021/04/07 00:19:07;;;;;;;11.30;1.50;;;1.90;84.10;;;;;;5111276;28;20043;-67
2021/04/07 00:21:33;;;;;;;9.52;1.73;;;1.90;83.90;;;;;;5112626;28;20046;-68
2021/04/07 00:23:59;;;;;;;8.43;1.98;;;1.90;83.90;;;;;;5111977;28;20070;-67
2021/04/07 00:26:24;;;;;;;12.00;2.07;;;1.80;84.00;;;;;;5111657;28;20484;-67
2021/04/07 00:28:50;;;;;;;8.03;1.63;;;1.90;84.10;;;;;;5112178;28;20052;-67
2021/04/07 00:31:16;;;;;;;6.72;1.42;;;1.80;84.20;;;;;;5112054;28;20043;-68
2021/04/07 00:33:42;;;;;;;7.13;1.80;;;1.80;84.20;;;;;;5111201;28;20052;-68
2021/04/07 00:36:07;;;;;;;7.63;2.07;;;1.80;84.30;;;;;;5112199;28;20047;-68
2021/04/07 00:38:33;;;;;;;6.63;1.63;;;1.80;84.20;;;;;;5112176;28;20054;-68
2021/04/07 00:41:00;;;;;;;10.40;1.70;;;1.80;84.20;;;;;;5111211;28;20051;-67
2021/04/07 00:43:25;;;;;;;5.93;1.40;;;1.80;84.20;;;;;;5112222;28;20108;-68
2021/04/07 00:45:51;;;;;;;8.10;2.10;;;1.80;84.10;;;;;;5111502;28;20051;-68
2021/04/07 00:48:17;;;;;;;11.03;1.93;;;1.80;84.20;;;;;;5111501;28;20043;-67
2021/04/07 00:50:43;;;;;;;6.65;1.55;;;1.80;84.20;;;;;;5111973;28;20083;-67
2021/04/07 00:53:09;;;;;;;7.67;1.67;;;1.90;84.10;;;;;;5111737;28;20460;-67
2021/04/07 00:55:38;;;;;;;10.73;1.80;;;1.90;84.00;;;;;;5111484;28;20051;-67
2021/04/07 00:58:05;;;;;;;9.82;2.42;;;1.90;83.90;;;;;;5111446;28;20048;-67
2021/04/07 01:00:31;;;;;;;7.85;2.17;;;1.90;83.90;;;;;;5111568;28;20122;-67
2021/04/07 01:02:59;;;;;;;6.45;1.30;;;1.90;83.90;;;;;;5110952;28;20474;-67
2021/04/07 01:05:26;;;;;;;5.80;1.50;;;1.90;83.90;;;;;;5111778;28;20483;-67
2021/04/07 01:07:53;;;;;;;7.32;1.73;;;1.90;84.10;;;;;;5111471;28;20297;-67
2021/04/07 01:10:19;;;;;;;8.60;1.83;;;1.90;84.10;;;;;;5111036;28;20052;-67
2021/04/07 01:12:45;;;;;;;6.80;1.48;;;1.90;84.30;;;;;;5111488;28;20043;-67
2021/04/07 01:15:13;;;;;;;7.87;1.90;;;1.90;84.30;;;;;;5111034;28;20058;-67
2021/04/07 01:17:39;;;;;;;10.88;2.10;;;1.90;84.40;;;;;;5110407;28;20865;-67
2021/04/07 01:20:13;;;;;;;8.50;2.28;;;2.00;84.50;;;;;;5111414;28;20048;-67
2021/04/07 01:22:40;;;;;;;14.70;1.83;;;2.00;84.50;;;;;;5111125;28;20491;-67
2021/04/07 01:25:08;;;;;;;10.88;1.60;;;2.00;84.40;;;;;;5111344;28;20309;-67
2021/04/07 01:27:37;;;;;;;7.17;1.80;;;2.00;84.60;;;;;;5111441;28;20487;-67
2021/04/07 01:30:09;;;;;;;6.75;1.77;;;2.00;84.70;;;;;;5110757;28;20302;-67
2021/04/07 01:32:36;;;;;;;5.67;1.60;;;2.00;84.70;;;;;;5111916;28;20047;-67
2021/04/07 01:35:02;;;;;;;6.67;1.67;;;2.00;84.70;;;;;;5111089;28;20311;-66
2021/04/07 01:37:28;;;;;;;9.60;1.97;;;2.00;84.80;;;;;;5111112;28;20302;-66
2021/04/07 01:39:53;;;;;;;14.07;2.13;;;2.00;84.80;;;;;;5111362;28;20104;-67
2021/04/07 01:42:19;;;;;;;7.70;1.30;;;1.90;84.80;;;;;;5111246;28;20047;-66
2021/04/07 01:44:45;;;;;;;6.93;2.00;;;1.90;85.90;;;;;;5110808;28;20124;-68
2021/04/07 01:47:13;;;;;;;8.45;1.83;;;1.90;85.30;;;;;;5111369;28;20050;-67
2021/04/07 01:49:39;;;;;;;6.82;1.65;;;2.00;85.20;;;;;;5111255;28;20040;-66
2021/04/07 01:52:05;;;;;;;5.70;1.50;;;1.90;85.20;;;;;;5110352;28;20092;-67
2021/04/07 01:54:34;;;;;;;7.15;1.60;;;2.00;85.60;;;;;;5111436;28;20036;-67
2021/04/07 01:57:00;;;;;;;8.27;1.50;;;1.90;86.00;;;;;;5109501;28;20052;-66
2021/04/07 01:59:28;;;;;;;6.60;1.63;;;1.90;86.40;;;;;;5110996;28;20094;-67
2021/04/07 02:01:55;;;;;;;8.43;1.30;;;1.90;86.50;;;;;;5110954;28;20048;-67
2021/04/07 02:04:21;;;;;;;7.43;1.55;;;1.90;86.40;;;;;;5111212;28;20055;-67
2021/04/07 02:06:47;;;;;;;7.93;1.60;;;1.90;86.90;;;;;;5110472;28;20070;-66
2021/04/07 02:09:14;;;;;;;8.00;2.05;;;1.90;87.20;;;;;;5110922;28;20047;-67
2021/04/07 02:11:41;;;;;;;7.63;1.85;;;1.90;87.50;;;;;;5111507;28;20054;-66
2021/04/07 02:14:08;;;;;;;5.43;1.38;;;2.00;87.40;;;;;;5114696;28;20063;-67
2021/04/07 02:16:34;;;;;;;6.95;1.85;;;2.00;87.80;;;;;;5115339;28;20051;-66
2021/04/07 02:18:59;;;;;;;7.70;1.50;;;2.00;87.70;;;;;;5113848;28;20044;-67
2021/04/07 02:21:25;;;;;;;6.93;1.43;;;2.10;88.10;;;;;;5114930;28;20487;-67
2021/04/07 02:23:51;;;;;;;4.50;1.47;;;2.10;88.00;;;;;;5114150;28;20512;-66
2021/04/07 02:26:16;;;;;;;7.77;1.33;;;2.10;88.00;;;;;;5114197;28;20055;-67
2021/04/07 02:28:42;;;;;;;7.97;1.23;;;2.10;88.00;;;;;;5114620;28;20472;-66
2021/04/07 02:31:08;;;;;;;4.13;1.37;;;2.10;87.90;;;;;;5114242;28;20091;-67
2021/04/07 02:33:35;;;;;;;6.90;1.80;;;2.20;88.20;;;;;;5114225;28;20054;-66
2021/04/07 02:36:01;;;;;;;6.43;1.50;;;2.20;88.20;;;;;;5113830;28;20055;-67
2021/04/07 02:38:26;;;;;;;6.00;1.80;;;2.20;88.20;;;;;;5114491;28;20296;-67
2021/04/07 02:40:53;;;;;;;4.97;1.30;;;2.20;88.50;;;;;;5113922;28;20410;-67
2021/04/07 02:43:19;;;;;;;2.92;1.25;;;2.20;88.90;;;;;;5114423;28;20039;-67
2021/04/07 02:45:45;;;;;;;5.90;1.70;;;2.30;88.90;;;;;;5113984;28;20138;-67
2021/04/07 02:48:10;;;;;;;5.53;1.30;;;2.30;88.90;;;;;;5113742;28;20040;-67
2021/04/07 02:50:36;;;;;;;9.83;1.67;;;2.30;89.50;;;;;;5114382;28;20134;-67
2021/04/07 02:53:01;;;;;;;7.37;1.27;;;2.30;88.90;;;;;;5113761;28;20039;-67
2021/04/07 02:55:27;;;;;;;6.80;1.50;;;2.30;89.00;;;;;;5113937;28;20508;-66
2021/04/07 02:57:53;;;;;;;4.00;1.00;;;2.30;89.30;;;;;;5114179;28;20134;-67
2021/04/07 03:00:19;;;;;;;3.97;1.50;;;2.30;89.00;;;;;;5113713;28;20392;-67
2021/04/07 03:02:44;;;;;;;6.23;1.60;;;2.30;89.10;;;;;;5113483;28;20097;-67
2021/04/07 03:05:10;;;;;;;5.03;1.40;;;2.30;89.30;;;;;;5113920;28;20817;-67
2021/04/07 03:07:40;;;;;;;5.20;1.90;;;2.40;89.40;;;;;;5113907;28;20407;-67
2021/04/07 03:10:08;;;;;;;7.23;2.07;;;2.50;89.40;;;;;;5113495;28;20309;-67
2021/04/07 03:12:34;;;;;;;7.32;1.33;;;2.40;89.40;;;;;;5114038;28;20298;-67
2021/04/07 03:14:59;;;;;;;5.63;1.53;;;2.50;89.40;;;;;;5112474;28;20058;-67
2021/04/07 03:17:25;;;;;;;5.13;1.57;;;2.50;89.40;;;;;;5113920;28;20055;-67
2021/04/07 03:19:50;;;;;;;5.47;1.83;;;2.50;89.40;;;;;;5113367;28;20043;-67
2021/04/07 03:22:16;;;;;;;2.03;1.00;;;2.50;89.30;;;;;;5113061;28;20051;-67
2021/04/07 03:24:43;;;;;;;5.27;1.30;;;2.50;89.30;;;;;;5113721;28;20043;-67
2021/04/07 03:27:09;;;;;;;5.87;1.50;;;2.50;89.30;;;;;;5113362;28;20373;-67
2021/04/07 03:29:34;;;;;;;2.80;0.97;;;2.50;89.40;;;;;;5113324;28;20051;-66
2021/04/07 03:32:00;;;;;;;7.27;1.50;;;2.50;89.50;;;;;;5113120;28;20499;-67
2021/04/07 03:34:26;;;;;;;5.20;1.02;;;2.50;89.30;;;;;;5113285;28;20416;-67
2021/04/07 03:36:55;;;;;;;4.27;1.20;;;2.60;89.70;;;;;;5112301;28;20476;-67
2021/04/07 03:39:21;;;;;;;5.20;1.43;;;2.60;89.60;;;;;;5113642;28;20294;-67
2021/04/07 03:41:46;;;;;;;3.47;1.50;;;2.60;89.50;;;;;;5112991;28;20060;-67
2021/04/07 03:44:12;;;;;;;6.07;1.60;;;2.60;89.40;;;;;;5112623;28;20047;-67
2021/04/07 03:46:38;;;;;;;4.10;1.27;;;2.60;89.60;;;;;;5113437;28;20055;-67
2021/04/07 03:49:03;;;;;;;3.10;1.10;;;2.60;89.70;;;;;;5112359;28;20036;-67
2021/04/07 03:51:29;;;;;;;3.03;0.93;;;2.60;89.90;;;;;;5112950;28;20202;-67
2021/04/07 03:53:55;;;;;;;1.77;0.80;;;2.50;90.00;;;;;;5112832;28;20313;-67
2021/04/07 03:56:22;;;;;;;2.60;0.80;;;2.50;90.00;;;;;;5113111;28;20043;-67
2021/04/07 03:58:48;;;;;;;2.90;1.07;;;2.50;90.40;;;;;;5112420;28;20047;-67
2021/04/07 04:01:13;;;;;;;3.80;0.70;;;2.50;90.00;;;;;;5112809;28;20304;-67
2021/04/07 04:03:39;;;;;;;3.30;0.90;;;2.50;90.00;;;;;;5112666;28;20058;-67
2021/04/07 04:06:05;;;;;;;3.70;1.00;;;2.50;90.00;;;;;;5111982;28;20051;-67
2021/04/07 04:08:30;;;;;;;2.07;0.77;;;2.50;90.00;;;;;;5113073;28;20047;-66
2021/04/07 04:10:56;;;;;;;5.50;1.03;;;2.50;90.10;;;;;;5112165;28;20187;-67
2021/04/07 04:13:23;;;;;;;1.30;0.75;;;2.40;90.30;;;;;;5111195;28;20040;-67
2021/04/07 04:15:49;;;;;;;2.40;1.10;;;2.50;90.30;;;;;;5112471;28;20087;-67
2021/04/07 04:18:14;;;;;;;2.60;0.97;;;2.40;90.20;;;;;;5111702;28;20735;-66
2021/04/07 04:20:40;;;;;;;4.03;0.90;;;2.40;90.40;;;;;;5112875;28;20472;-67
2021/04/07 04:23:08;;;;;;;2.43;0.90;;;2.40;90.40;;;;;;5112270;28;20039;-67
2021/04/07 04:25:34;;;;;;;4.10;0.87;;;2.40;90.30;;;;;;5112130;28;20669;-67
2021/04/07 04:27:59;;;;;;;5.23;1.00;;;2.40;90.30;;;;;;5112104;28;20047;-67
2021/04/07 04:30:27;;;;;;;4.53;1.20;;;2.40;90.40;;;;;;5111160;28;20407;-66
2021/04/07 04:32:52;;;;;;;3.53;1.00;;;2.40;90.40;;;;;;5111620;28;20051;-67
2021/04/07 04:35:19;;;;;;;1.67;1.00;;;2.40;90.40;;;;;;5112248;28;20138;-67
2021/04/07 04:37:46;;;;;;;4.73;1.17;;;2.40;90.40;;;;;;5112086;28;20393;-68
2021/04/07 04:40:13;;;;;;;2.23;0.90;;;2.40;90.50;;;;;;5111622;28;20096;-68
2021/04/07 04:42:39;;;;;;;5.15;1.25;;;2.40;90.50;;;;;;5112435;28;20296;-68
2021/04/07 04:45:06;;;;;;;5.03;1.10;;;2.40;90.60;;;;;;5111527;28;20126;-68
2021/04/07 04:47:32;;;;;;;3.15;1.10;;;2.40;90.60;;;;;;5111572;28;20051;-68
2021/04/07 04:49:58;;;;;;;3.65;1.40;;;2.50;90.60;;;;;;5111861;28;20090;-68
2021/04/07 04:52:24;;;;;;;1.00;0.87;;;2.50;90.40;;;;;;5112084;28;20063;-67
2021/04/07 04:54:50;;;;;;;2.83;1.00;;;2.50;90.50;;;;;;5111440;28;20044;-68
2021/04/07 04:57:15;;;;;;;2.37;1.30;;;2.50;90.50;;;;;;5111922;28;20130;-68
2021/04/07 04:59:43;;;;;;;2.28;1.00;;;2.50;90.50;;;;;;5111870;28;20044;-68
2021/04/07 05:02:09;;;;;;;4.00;1.17;;;2.50;90.50;;;;;;5111393;28;20483;-68
2021/04/07 05:04:34;;;;;;;1.00;0.90;;;2.60;90.50;;;;;;5112412;28;20139;-68
2021/04/07 05:07:00;;;;;;;4.23;1.20;;;2.60;90.60;;;;;;5111395;28;20499;-68
2021/04/07 05:09:26;;;;;;;3.70;1.50;;;2.60;90.60;;;;;;5111707;28;20051;-68
2021/04/07 05:11:52;;;;;;;3.10;1.53;;;2.60;90.50;;;;;;5112155;28;20043;-68
2021/04/07 05:14:18;;;;;;;3.63;1.20;;;2.70;90.60;;;;;;5111621;28;20055;-68
2021/04/07 05:16:43;;;;;;;3.57;1.53;;;2.70;90.50;;;;;;5111403;28;20328;-68
2021/04/07 05:19:09;;;;;;;3.57;1.80;;;2.80;90.50;;;;;;5111799;28;20047;-68
2021/04/07 05:21:35;;;;;;;2.77;1.37;;;2.80;90.50;;;;;;5111650;28;20047;-68
2021/04/07 05:24:01;;;;;;;2.70;1.33;;;2.80;90.50;;;;;;5111282;28;20324;-68
2021/04/07 05:26:26;;;;;;;2.60;1.30;;;2.90;90.50;;;;;;5112083;28;20231;-68
2021/04/07 05:28:52;;;;;;;2.83;1.30;;;2.90;90.40;;;;;;5111462;28;20427;-68
2021/04/07 05:31:18;;;;;;;4.23;1.50;;;3.00;90.30;;;;;;5111773;28;20468;-67
2021/04/07 05:33:46;;;;;;;4.27;1.40;;;3.00;90.30;;;;;;5111373;28;20067;-67
2021/04/07 05:36:14;;;;;;;2.23;1.20;;;3.10;90.30;;;;;;5111065;28;20560;-68
2021/04/07 05:38:40;;;;;;;3.23;1.37;;;3.20;90.20;;;;;;5112118;28;20312;-67
2021/04/07 05:41:07;;;;;;;4.47;1.40;;;3.20;90.00;;;;;;5111193;28;20289;-67
2021/04/07 05:43:35;;;;;;;4.73;1.80;;;3.20;90.00;;;;;;5111338;28;20355;-67
2021/04/07 05:46:00;;;;;;;2.80;1.40;;;3.30;90.10;;;;;;5111027;28;20941;-67
2021/04/07 05:48:27;;;;;;;3.57;1.27;;;3.30;90.10;;;;;;5115209;28;20297;-67
2021/04/07 05:50:54;;;;;;;2.93;1.50;;;3.40;90.10;;;;;;5114991;28;20233;-67
2021/04/07 05:53:20;;;;;;;3.37;1.63;;;3.40;90.10;;;;;;5115831;28;20676;-67
2021/04/07 05:55:48;;;;;;;2.73;1.60;;;3.40;90.00;;;;;;5115294;28;20388;-67
2021/04/07 05:58:15;;;;;;;2.63;1.37;;;3.40;90.10;;;;;;5114798;28;20585;-67
2021/04/07 06:00:42;;;;;;;2.47;1.40;;;3.40;90.10;;;;;;5114239;28;20315;-67
2021/04/07 06:03:08;;;;;;;1.97;1.30;;;3.40;90.10;;;;;;5115117;28;20335;-67
2021/04/07 06:05:35;;;;;;;2.97;1.27;;;3.40;90.10;;;;;;5114936;28;20324;-67
2021/04/07 06:08:01;;;;;;;3.87;1.43;;;3.40;90.10;;;;;;5114850;28;20301;-67
2021/04/07 06:10:28;;;;;;;3.87;1.63;;;3.40;90.10;;;;;;5114855;28;20788;-67
2021/04/07 06:12:55;;;;;;;2.50;1.43;;;3.30;90.20;;;;;;5114363;28;20329;-67
2021/04/07 06:15:22;;;;;;;3.80;1.50;;;3.40;90.20;;;;;;5114728;28;20302;-67
2021/04/07 06:17:54;;;;;;;2.13;1.30;;;3.40;90.20;;;;;;5114470;28;20294;-67
2021/04/07 06:20:22;;;;;;;2.30;1.57;;;3.50;90.30;;;;;;5115641;28;20833;-67
2021/04/07 06:22:48;;;;;;;3.73;1.53;;;3.70;90.40;;;;;;5114668;28;20297;-67
2021/04/07 06:25:14;;;;;;;6.00;1.77;;;3.80;90.30;;;;;;5114374;28;20320;-67
2021/04/07 06:27:40;;;;;;;6.00;2.10;;;4.00;90.30;;;;;;5115380;28;20168;-67
2021/04/07 06:30:06;;;;;;;5.10;1.60;;;4.10;90.20;;;;;;5114754;28;20388;-67
2021/04/07 06:32:32;;;;;;;5.47;1.80;;;4.20;90.00;;;;;;5114689;28;20043;-67
2021/04/07 06:34:58;;;;;;;6.90;1.90;;;4.20;90.00;;;;;;5114179;28;20844;-67
2021/04/07 06:37:24;;;;;;;4.50;2.00;;;4.20;90.10;;;;;;5114644;28;20126;-67
2021/04/07 06:39:50;;;;;;;6.00;2.07;;;4.30;90.10;;;;;;5114013;28;20293;-67
2021/04/07 06:42:17;;;;;;;4.17;2.30;;;4.30;90.00;;;;;;5114458;28;20840;-67
2021/04/07 06:44:43;;;;;;;7.13;2.07;;;4.40;90.20;;;;;;5114310;28;20075;-67
2021/04/07 06:47:10;;;;;;;6.63;2.23;;;4.40;90.00;;;;;;5113847;28;20327;-67
2021/04/07 06:49:41;;;;;;;8.60;2.40;;;4.50;90.10;;;;;;5114632;28;20047;-67
2021/04/07 06:52:15;;;;;;;7.07;2.55;;;4.60;89.80;;;;;;5113907;28;20769;-67
2021/04/07 06:54:42;;;;;;;5.90;2.43;;;4.60;89.70;;;;;;5113647;28;20052;-68
2021/04/07 06:57:09;;;;;;;7.47;3.30;;;4.60;89.80;;;;;;5113530;28;20804;-65
2021/04/07 06:59:36;;;;;;;11.37;3.43;;;4.70;89.90;;;;;;5114090;28;20296;-67
2021/04/07 07:02:03;;;;;;;9.20;3.00;;;4.80;89.80;;;;;;5113174;28;20301;-67
2021/04/07 07:04:28;;;;;;;11.30;3.40;;;4.90;89.80;;;;;;5113876;28;20384;-69
2021/04/07 07:06:55;;;;;;;6.67;2.10;;;5.00;89.40;;;;;;5113251;28;20385;-67
2021/04/07 07:09:21;;;;;;;6.83;2.23;;;5.20;89.50;;;;;;5114065;28;20044;-68
2021/04/07 07:11:49;;;;;;;8.23;2.27;;;5.40;89.50;;;;;;5113822;28;20769;-68
2021/04/07 07:14:15;;;;;;;8.07;2.80;;;5.60;88.60;;;;;;5113424;28;20804;-67
2021/04/07 07:16:52;;;;;;;7.97;2.47;;;5.80;89.00;;;;;;5113454;28;20337;-68
2021/04/07 07:19:34;;;;;;;9.20;2.30;;;6.10;88.50;;;;;;5113119;28;20289;-67
2021/04/07 07:22:01;;;;;;;;;;;6.20;87.70;;;;;;5113162;28;20293;-68
2021/04/07 07:24:32;;;;;;;11.77;2.87;;;6.30;86.50;;;;;;5113530;28;19923;-68
2021/04/07 07:27:00;;;;;;;8.57;1.90;;;6.20;87.20;;;;;;5112866;28;20377;-68
2021/04/07 07:29:29;;;;;;;9.13;2.17;;;6.20;87.20;;;;;;5112710;28;20409;-68
2021/04/07 07:32:10;;;;;;;9.43;2.07;;;6.10;87.20;;;;;;5112729;28;20286;-68
2021/04/07 07:34:35;;;;;;;7.87;1.77;;;6.10;87.10;;;;;;5113096;28;20290;-67
2021/04/07 07:37:04;;;;;;;8.80;3.07;;;6.20;87.60;;;;;;5111880;28;20399;-67
2021/04/07 07:39:33;;;;;;;9.57;2.57;;;6.50;87.10;;;;;;5112252;28;20050;-67
2021/04/07 07:42:08;;;;;;;12.47;2.50;;;6.70;86.50;;;;;;5111102;28;20754;-67
2021/04/07 07:44:37;;;;;;;9.03;2.13;;;6.80;86.20;;;;;;5113264;28;20739;-68
2021/04/07 07:47:16;;;;;;;8.60;2.43;;;7.10;86.10;;;;;;5112359;28;20289;-68
2021/04/07 07:49:56;;;;;;;9.27;2.20;;;7.30;85.00;;;;;;5105833;28;20358;-67
2021/04/07 07:52:36;;;;;;;8.17;1.70;;;7.50;84.30;;;;;;5112160;28;20380;-67
2021/04/07 07:55:19;;;;;;;8.47;2.20;;;7.50;84.00;;;;;;5109280;28;20305;-67
2021/04/07 07:57:55;;;;;;;10.57;2.20;;;7.40;84.50;;;;;;5109599;28;20683;-67
2021/04/07 08:00:25;;;;;;;16.87;2.70;;;7.30;83.40;;;;;;5109953;28;20301;-67
2021/04/07 08:02:51;;;;;;;14.97;3.20;;;7.10;83.70;;;;;;5112453;28;20282;-67
2021/04/07 08:05:18;;;;;;;13.47;2.53;;;6.90;84.00;;;;;;5110383;28;20323;-67
2021/04/07 08:07:44;;;;;;;8.13;1.80;;;6.80;84.60;;;;;;5111750;28;20084;-67
2021/04/07 08:10:11;;;;;;;13.50;2.93;;;6.80;84.90;;;;;;5111544;28;20320;-67
2021/04/07 08:12:40;;;;;;;8.90;1.97;;;6.70;85.00;;;;;;5112710;28;20578;-67
2021/04/07 08:15:09;;;;;;;5.87;1.63;;;6.60;85.00;;;;;;5111726;28;20833;-67
2021/04/07 08:17:35;;;;;;;12.43;3.07;;;6.50;85.20;;;;;;5110877;28;20301;-67
2021/04/07 08:20:02;;;;;;;7.23;1.63;;;6.40;85.60;;;;;;5112003;28;20331;-67
2021/04/07 08:22:33;;;;;;;11.63;1.90;;;6.40;85.90;;;;;;5112586;28;20325;-66
2021/04/07 08:25:00;;;;;;;12.13;2.13;;;6.40;86.10;;;;;;5111409;28;20313;-67
2021/04/07 08:27:27;;;;;;;9.70;2.10;;;6.40;86.30;;;;;;5112560;28;20043;-67
2021/04/07 08:29:53;;;;;;;10.07;2.40;;;6.30;86.10;;;;;;5112052;28;20308;-67
2021/04/07 08:32:20;;;;;;;11.63;1.80;;;6.30;86.30;;;;;;5111535;28;20305;-67
2021/04/07 08:34:46;;;;;;;12.37;1.83;;;6.20;86.30;;;;;;5112151;28;20115;-67
2021/04/07 08:37:18;;;;;;;14.50;2.13;;;6.20;86.50;;;;;;5112035;28;20354;-67
2021/04/07 08:39:44;;;;;;;;;;;6.20;86.60;;;;;;5112189;28;20355;-68
2021/04/07 08:42:14;;;;;;;16.93;2.53;;;6.10;87.30;;;;;;5112118;28;19919;-67
2021/04/07 08:44:44;;;;;;;18.03;3.30;;;6.10;86.80;;;;;;5111938;28;20047;-68
2021/04/07 08:47:29;;;;;;;14.73;3.33;;;6.10;87.00;;;;;;5111234;28;20872;-67
2021/04/07 08:50:08;;;;;;;21.27;3.70;;;6.20;87.20;;;;;;5111433;28;20362;-68
2021/04/07 08:52:45;;;;;;;15.27;3.30;;;6.30;87.10;;;;;;5111734;28;20401;-67
2021/04/07 08:55:22;;;;;;;14.83;3.37;;;6.40;86.80;;;;;;5111625;28;20650;-67
2021/04/07 08:58:04;;;;;;;14.30;2.93;;;6.80;87.50;;;;;;5111575;28;20297;-67
2021/04/07 09:00:35;;;;;;;21.10;3.72;;;7.30;86.70;;;;;;5111623;28;20301;-67
2021/04/07 09:03:14;;;;;;;11.93;2.60;;;7.70;86.50;;;;;;5111559;28;20048;-67
2021/04/07 09:05:43;;;;;;;15.57;2.67;;;7.80;83.80;;;;;;5111656;28;20140;-68
2021/04/07 09:08:13;;;;;;;20.80;3.53;;;7.60;83.00;;;;;;5111273;28;20289;-67
2021/04/07 09:10:45;;;;;;;13.13;2.63;;;7.40;82.60;;;;;;5111962;28;20297;-68
2021/04/07 09:13:22;;;;;;;9.70;2.78;;;7.20;82.20;;;;;;5111692;28;20334;-68
2021/04/07 09:16:04;;;;;;;14.13;2.67;;;7.00;81.40;;;;;;5110973;28;20089;-67
2021/04/07 09:18:41;;;;;;;13.43;2.33;;;6.90;82.30;;;;;;5111666;28;20635;-67
2021/04/07 09:21:08;;;;;;;14.23;2.83;;;6.80;82.80;;;;;;5111984;28;20808;-67
2021/04/07 09:23:38;;;;;;;16.77;2.80;;;6.90;83.10;;;;;;5115954;28;20327;-67
2021/04/07 09:26:17;;;;;;;24.67;3.30;;;7.10;83.20;;;;;;5115075;28;20316;-68
2021/04/07 09:28:45;;;;;;;12.10;2.40;;;7.30;83.10;;;;;;5115035;28;20351;-68
2021/04/07 09:31:19;;;;;;;14.60;3.03;;;7.30;82.40;;;;;;5115729;27;20305;-67
2021/04/07 09:33:47;;;;;;;15.47;3.07;;;7.20;82.30;;;;;;5115332;28;20297;-69
2021/04/07 09:36:15;;;;;;;12.53;3.00;;;7.10;82.00;;;;;;5115307;28;20353;-67
2021/04/07 09:38:47;;;;;;;18.87;3.50;;;7.00;81.20;;;;;;5115236;28;20305;-68
2021/04/07 09:41:20;;;;;;;11.40;3.20;;;6.80;82.10;;;;;;5115290;28;20374;-66
2021/04/07 09:43:45;;;;;;;13.30;4.03;;;6.80;82.50;;;;;;5114889;28;20313;-68
2021/04/07 09:46:11;;;;;;;21.90;3.87;;;6.80;82.50;;;;;;5114722;28;20366;-67
2021/04/07 09:48:42;;;;;;;18.83;4.10;;;6.80;82.90;;;;;;5115628;28;20051;-67
2021/04/07 09:51:47;;;;;;;19.60;3.83;;;6.80;82.90;;;;;;5115229;27;20047;-67
2021/04/07 09:54:23;;;;;;;21.40;4.07;;;6.90;83.20;;;;;;5100422;28;20293;-67
2021/04/07 09:56:52;;;;;;;21.10;5.17;;;7.00;82.60;;;;;;5114766;28;20293;-67
2021/04/07 09:59:29;;;;;;;21.37;3.93;;;7.10;82.10;;;;;;5115296;28;20376;-68
2021/04/07 10:01:54;;;;;;;18.07;3.73;;;7.30;81.20;;;;;;5114850;28;20342;-68
2021/04/07 10:04:35;;;;;;;15.10;3.33;;;7.40;80.70;;;;;;5114941;28;20304;-68
2021/04/07 10:07:12;;;;;;;16.23;3.73;;;7.60;80.00;;;;;;5114798;28;20051;-69
2021/04/07 10:09:39;;;;;;;19.93;3.63;;;7.80;79.00;;;;;;5115435;28;20297;-68
2021/04/07 10:12:06;;;;;;;15.10;3.33;;;7.90;78.10;;;;;;5114124;28;20301;-68
2021/04/07 10:14:32;;;;;;;15.43;4.23;;;7.90;78.10;;;;;;5114908;28;20301;-68
2021/04/07 10:17:10;;;;;;;20.87;3.80;;;7.90;77.60;;;;;;5113903;28;20388;-68
2021/04/07 10:19:36;;;;;;;20.37;3.50;;;7.80;77.70;;;;;;5115183;28;20124;-69
2021/04/07 10:22:02;;;;;;;18.10;3.03;;;7.80;76.20;;;;;;5114627;28;20315;-68
2021/04/07 10:24:29;;;;;;;12.13;3.10;;;7.90;76.00;;;;;;5114612;28;20781;-68
2021/04/07 10:26:55;;;;;;;15.87;3.60;;;8.00;75.30;;;;;;5114377;28;20075;-69
2021/04/07 10:29:23;;;;;;;15.40;3.20;;;8.00;74.50;;;;;;5114867;28;20324;-68
2021/04/07 10:31:54;;;;;;;17.80;3.00;;;8.10;75.50;;;;;;5114028;28;20138;-68
2021/04/07 10:34:34;;;;;;;15.77;2.87;;;8.30;75.50;;;;;;5114529;28;20346;-68
2021/04/07 10:37:02;;;;;;;15.47;2.70;;;8.30;74.30;;;;;;5113980;28;20830;-68
2021/04/07 10:39:42;;;;;;;15.93;3.63;;;8.50;74.90;;;;;;5114101;28;20294;-66
2021/04/07 10:42:14;;;;;;;12.43;3.00;;;8.60;71.80;;;;;;5113945;28;20305;-67
2021/04/07 10:44:40;;;;;;;12.43;3.17;;;8.50;72.80;;;;;;5114731;28;20341;-66
2021/04/07 10:47:18;;;;;;;13.50;2.93;;;8.50;72.50;;;;;;5113591;28;20385;-67
2021/04/07 10:49:52;;;;;;;14.07;2.73;;;8.50;72.20;;;;;;5113916;28;20684;-67
2021/04/07 10:52:28;;;;;;;15.00;3.73;;;8.50;72.20;;;;;;5113456;28;20366;-67
2021/04/07 10:54:57;;;;;;;20.80;3.80;;;8.50;73.10;;;;;;5114261;28;20295;-67
2021/04/07 10:57:33;;;;;;;18.20;3.07;;;8.50;72.60;;;;;;5114257;28;20325;-66
2021/04/07 10:59:59;;;;;;;17.03;4.20;;;8.40;73.00;;;;;;5112959;28;20809;-67
2021/04/07 11:02:25;;;;;;;14.10;4.30;;;8.10;72.30;;;;;;5113900;27;20297;-67
2021/04/07 11:04:51;;;;;;;13.97;3.47;;;8.00;72.70;;;;;;5113796;28;20055;-66
2021/04/07 11:07:17;;;;;;;13.63;3.80;;;7.80;72.80;;;;;;5113153;28;20508;-67
2021/04/07 11:09:50;;;;;;;17.13;4.07;;;7.70;74.00;;;;;;5112705;28;20044;-67
2021/04/07 11:12:21;;;;;;;13.47;3.33;;;7.50;73.10;;;;;;5113392;28;20379;-66
2021/04/07 11:14:53;;;;;;;13.60;2.77;;;7.40;73.00;;;;;;5113080;28;20311;-66
2021/04/07 11:17:19;;;;;;;15.97;2.60;;;7.30;74.60;;;;;;5113416;28;20293;-67
2021/04/07 11:19:46;;;;;;;19.80;3.90;;;7.10;75.40;;;;;;5113376;28;20308;-66
2021/04/07 11:22:12;;;;;;;16.30;3.20;;;7.00;76.50;;;;;;5113039;28;20417;-66
2021/04/07 11:24:38;;;;;;;20.30;3.60;;;6.90;77.50;;;;;;5113499;28;20340;-66
2021/04/07 11:27:07;;;;;;;17.67;3.73;;;6.90;78.60;;;;;;5113202;28;20120;-65
2021/04/07 11:29:35;;;;;;;17.40;2.97;;;7.00;79.40;;;;;;5113408;28;20055;-66
2021/04/07 11:32:02;;;;;;;17.03;3.27;;;7.10;78.00;;;;;;5112829;28;20297;-66
2021/04/07 11:34:36;;;;;;;12.80;2.67;;;7.20;77.90;;;;;;5112884;28;21173;-66
2021/04/07 11:42:05;;;;;;;9.87;2.53;;;7.10;77.40;;;;;;5111649;28;20297;-68
2021/04/07 11:44:32;;;;;;;7.60;1.90;;;6.70;78.10;;;;;;5112207;28;20071;-66
2021/04/07 11:46:59;;;;;;;11.83;1.60;;;6.20;79.00;;;;;;5112887;28;20320;-66
2021/04/07 11:49:25;;;;;;;7.77;1.30;;;6.00;79.60;;;;;;5112831;28;20623;-66
2021/04/07 11:51:50;;;;;;;8.53;1.13;;;5.70;80.30;;;;;;5112768;28;20297;-66
2021/04/07 11:54:17;;;;;;;12.53;2.13;;;5.70;81.30;;;;;;5112549;28;20054;-66
2021/04/07 11:56:46;;;;;;;9.47;1.67;;;5.70;81.20;;;;;;5112204;28;20420;-66
2021/04/07 11:59:17;;;;;;;15.73;2.30;;;5.90;81.80;;;;;;5112665;28;20333;-66
2021/04/07 12:01:45;;;;;;;13.07;2.63;;;6.00;81.70;;;;;;5112815;28;20293;-66
2021/04/07 12:04:10;;;;;;;13.30;2.97;;;6.20;81.60;;;;;;5112141;28;20067;-66
2021/04/07 12:06:36;;;;;;;13.33;2.73;;;6.50;81.90;;;;;;5112704;28;20313;-67
2021/04/07 12:09:04;;;;;;;11.57;2.53;;;6.60;81.10;;;;;;5112321;28;20054;-67
2021/04/07 12:11:30;;;;;;;13.03;2.30;;;6.80;82.00;;;;;;5112411;28;20071;-67
2021/04/07 12:13:56;;;;;;;12.13;2.37;;;7.00;80.70;;;;;;5112161;28;20352;-67
2021/04/07 12:16:22;;;;;;;15.03;2.20;;;7.10;79.60;;;;;;5112216;28;20786;-67
2021/04/07 12:18:48;;;;;;;8.47;1.93;;;7.30;79.50;;;;;;5112524;28;20044;-69
2021/04/07 12:21:15;;;;;;;13.47;1.80;;;7.40;76.00;;;;;;5112175;28;20044;-67
2021/04/07 12:23:41;;;;;;;10.87;2.90;;;7.50;75.40;;;;;;5111853;28;20829;-67
2021/04/07 12:26:07;;;;;;;4.97;1.57;;;7.70;74.00;;;;;;5112140;28;20313;-67
2021/04/07 12:28:34;;;;;;;12.60;2.03;;;7.70;70.60;;;;;;5112472;28;20047;-67
2021/04/07 12:31:00;;;;;;;15.70;3.03;;;7.80;70.70;;;;;;5111658;28;20047;-67
2021/04/07 12:33:27;;;;;;;10.97;2.30;;;7.80;69.50;;;;;;5112451;28;20785;-67
2021/04/07 12:35:53;;;;;;;7.20;1.60;;;7.80;69.70;;;;;;5111933;28;20059;-67
2021/04/07 12:38:19;;;;;;;11.47;2.03;;;7.80;69.90;;;;;;5111351;28;20656;-67
2021/04/07 12:40:48;;;;;;;14.17;2.27;;;7.70;68.90;;;;;;5112268;28;20297;-67
2021/04/07 12:43:15;;;;;;;12.13;2.50;;;7.50;68.60;;;;;;5112016;28;20452;-67
2021/04/07 12:45:41;;;;;;;11.40;1.80;;;7.40;68.20;;;;;;5111531;28;20321;-67
2021/04/07 12:48:08;;;;;;;12.80;2.10;;;7.20;68.50;;;;;;5111693;28;20300;-68
2021/04/07 12:50:34;;;;;;;6.47;1.63;;;7.00;70.00;;;;;;5112173;28;20325;-68
2021/04/07 12:53:01;;;;;;;10.83;1.60;;;6.70;72.40;;;;;;5111023;28;20372;-68
2021/04/07 12:55:27;;;;;;;9.50;1.77;;;6.30;74.40;;;;;;5111645;28;20305;-67
2021/04/07 12:57:53;;;;;;;4.50;1.30;;;5.90;76.10;;;;;;5111922;28;20837;-66
2021/04/07 13:00:19;;;;;;;7.77;2.23;;;5.60;77.60;;;;;;5111338;28;20048;-66
2021/04/07 13:02:45;;;;;;;7.03;1.47;;;5.40;79.40;;;;;;5111317;28;20789;-67